Time;durP1;ratioP1;P1;durP2;ratioP2;P2;SDS_P1;SDS_P2;PMS_P1;PMS_P2;Temp;Humidity;BMP_temperature;BMP_pressure;BME280_temperature;BME280_humidity;BME280_pressure;Samples;Min_cycle;Max_cycle;Signal;HPM_P1;HPM_P2
2022/08/17 00:00:27;;;;;;;1999.90;999.90;;;18.00;99.90;;;;;;5058885;28;20407;-75
2022/08/17 00:03:01;;;;;;;1999.90;999.90;;;17.90;99.90;;;;;;5061886;28;20095;-76
2022/08/17 00:05:30;;;;;;;1999.90;999.90;;;17.80;99.90;;;;;;5062255;28;20048;-76
2022/08/17 00:07:56;;;;;;;1999.90;999.90;;;17.80;99.90;;;;;;5041303;28;20047;-75
2022/08/17 00:10:22;;;;;;;1999.90;999.90;;;17.80;99.90;;;;;;5069501;28;20409;-76
2022/08/17 00:12:47;;;;;;;1999.90;999.90;;;17.80;99.90;;;;;;5069543;28;20423;-75
2022/08/17 00:15:14;;;;;;;1999.90;999.90;;;17.80;99.90;;;;;;5037351;28;20045;-76
2022/08/17 00:17:43;;;;;;;1999.90;999.90;;;17.80;99.90;;;;;;5048217;28;20042;-76
2022/08/17 00:20:09;;;;;;;1999.90;999.90;;;17.80;99.90;;;;;;5051326;28;20089;-75
2022/08/17 00:22:35;;;;;;;1999.90;999.90;;;17.70;99.90;;;;;;5067091;28;20095;-75
2022/08/17 00:25:06;;;;;;;1999.90;999.90;;;17.70;99.90;;;;;;5062313;28;20033;-75
2022/08/17 00:27:32;;;;;;;1999.90;999.90;;;17.70;99.90;;;;;;5063945;28;20033;-75
2022/08/17 00:29:58;;;;;;;1999.90;999.90;;;17.70;99.90;;;;;;5046562;28;20086;-76
2022/08/17 00:32:23;;;;;;;1999.90;999.90;;;17.70;99.90;;;;;;5069124;28;20456;-75
2022/08/17 00:34:49;;;;;;;1999.90;999.90;;;17.60;99.90;;;;;;5039600;28;20041;-75
2022/08/17 00:37:15;;;;;;;1999.90;999.90;;;17.70;99.90;;;;;;5066899;28;20071;-75
2022/08/17 00:39:41;;;;;;;1999.90;999.90;;;17.60;99.90;;;;;;5068687;28;20052;-76
2022/08/17 00:42:17;;;;;;;1999.90;999.90;;;17.60;99.90;;;;;;5060807;28;20093;-76
2022/08/17 00:44:43;;;;;;;1999.90;999.90;;;17.60;99.90;;;;;;5060413;28;20051;-75
2022/08/17 00:47:09;;;;;;;1999.90;999.90;;;17.60;99.90;;;;;;5054876;28;20037;-76
2022/08/17 00:49:34;;;;;;;1999.90;999.90;;;17.60;99.90;;;;;;5036780;28;20489;-75
2022/08/17 00:52:11;;;;;;;1999.90;999.90;;;17.60;99.90;;;;;;5075085;28;21018;-75
2022/08/17 00:54:39;;;;;;;1999.90;999.90;;;17.60;99.90;;;;;;5062943;28;20565;-75
2022/08/17 00:57:22;;;;;;;1999.90;999.90;;;17.50;99.90;;;;;;5058237;28;20041;-75
2022/08/17 01:00:16;;;;;;;1999.90;999.90;;;17.50;99.90;;;;;;5060710;28;20374;-76
2022/08/17 01:02:44;;;;;;;1999.90;999.90;;;17.50;99.90;;;;;;5044706;28;20041;-75
2022/08/17 01:05:16;;;;;;;1999.90;999.90;;;17.50;99.90;;;;;;5062067;28;20544;-75
2022/08/17 01:07:43;;;;;;;1999.90;999.90;;;17.40;99.90;;;;;;5075931;28;20040;-75
2022/08/17 01:10:11;;;;;;;1999.90;999.90;;;17.40;99.90;;;;;;5064419;28;20072;-76
2022/08/17 01:12:37;;;;;;;1999.90;999.90;;;17.40;99.90;;;;;;5061175;28;20073;-75
2022/08/17 01:15:06;;;;;;;1999.90;999.90;;;17.30;99.90;;;;;;5062346;28;20052;-75
2022/08/17 01:17:32;;;;;;;1999.90;999.90;;;17.30;99.90;;;;;;5043461;28;20132;-75
2022/08/17 01:19:58;;;;;;;1999.90;999.90;;;17.30;99.90;;;;;;5042242;28;20440;-75
2022/08/17 01:22:25;;;;;;;1999.90;999.90;;;17.40;99.90;;;;;;5032063;28;20103;-75
2022/08/17 01:24:56;;;;;;;1999.90;999.90;;;17.40;99.90;;;;;;5066041;28;20037;-75
2022/08/17 01:27:23;;;;;;;1999.90;999.90;;;17.30;99.90;;;;;;5048123;28;20404;-75
2022/08/17 01:29:57;;;;;;;1999.90;999.90;;;17.30;99.90;;;;;;5055042;28;20086;-75
2022/08/17 01:32:23;;;;;;;1999.90;999.90;;;17.20;99.90;;;;;;5068109;28;20050;-75
2022/08/17 01:34:49;;;;;;;1999.90;999.90;;;17.20;99.90;;;;;;5050220;28;20439;-75
2022/08/17 01:37:15;;;;;;;1999.90;999.90;;;17.20;99.90;;;;;;5040120;28;20048;-75
2022/08/17 01:39:43;;;;;;;1999.90;999.90;;;17.10;99.90;;;;;;5042605;28;20412;-75
2022/08/17 01:42:17;;;;;;;1999.90;999.90;;;17.10;99.90;;;;;;5040312;28;20183;-75
2022/08/17 01:44:42;;;;;;;1999.90;999.90;;;17.00;99.90;;;;;;5062572;28;20080;-75
2022/08/17 01:47:08;;;;;;;1999.90;999.90;;;17.10;99.90;;;;;;5049428;28;21661;-75
2022/08/17 01:49:34;;;;;;;1999.90;999.90;;;17.00;99.90;;;;;;5035344;28;20040;-75
2022/08/17 01:52:08;;;;;;;1999.90;999.90;;;17.00;99.90;;;;;;5053355;28;20120;-75
2022/08/17 01:54:35;;;;;;;1999.90;999.90;;;17.00;99.90;;;;;;5046960;28;20044;-76
2022/08/17 01:57:00;;;;;;;1999.90;999.90;;;16.90;99.90;;;;;;5044107;28;20044;-75
2022/08/17 01:59:26;;;;;;;1999.90;999.90;;;16.90;99.90;;;;;;5042702;28;20070;-75
2022/08/17 02:01:52;;;;;;;1999.90;999.90;;;16.90;99.90;;;;;;5063884;28;20072;-76
2022/08/17 02:04:17;;;;;;;1999.90;999.90;;;16.90;99.90;;;;;;5062846;28;20495;-75
2022/08/17 02:06:43;;;;;;;1999.90;999.90;;;16.90;99.90;;;;;;5048456;28;20040;-75
2022/08/17 02:09:10;;;;;;;1999.90;999.90;;;16.90;99.90;;;;;;5045779;28;20041;-75
2022/08/17 02:11:39;;;;;;;1999.90;999.90;;;16.90;99.90;;;;;;5046479;28;20450;-75
2022/08/17 02:14:09;;;;;;;1999.90;999.90;;;16.90;99.90;;;;;;5065807;28;20044;-75
2022/08/17 02:16:37;;;;;;;1999.90;999.90;;;16.90;99.90;;;;;;5058521;28;20132;-75
2022/08/17 02:19:05;;;;;;;1999.90;999.90;;;16.90;99.90;;;;;;5054734;28;20056;-75
2022/08/17 02:21:31;;;;;;;1999.90;999.90;;;16.90;99.90;;;;;;5064150;28;20102;-75
2022/08/17 02:23:58;;;;;;;1999.90;999.90;;;17.00;99.90;;;;;;5038170;28;20064;-75
2022/08/17 02:26:23;;;;;;;1999.90;999.90;;;17.00;99.90;;;;;;5096419;28;20146;-75
2022/08/17 02:28:49;;;;;;;1999.90;999.90;;;16.90;99.90;;;;;;5061471;28;20661;-75
2022/08/17 02:31:15;;;;;;;1999.90;999.90;;;16.90;99.90;;;;;;5042992;28;20036;-75
2022/08/17 02:33:41;;;;;;;1999.90;999.90;;;16.90;99.90;;;;;;5066629;28;20387;-75
2022/08/17 02:36:10;;;;;;;1999.90;999.90;;;16.90;99.90;;;;;;5067198;28;20068;-75
2022/08/17 02:38:36;;;;;;;1999.90;999.90;;;16.90;99.90;;;;;;5051013;28;20052;-75
2022/08/17 02:41:02;;;;;;;1999.90;999.90;;;16.90;99.90;;;;;;5042344;28;20106;-75
2022/08/17 02:43:27;;;;;;;1999.90;999.90;;;16.80;99.90;;;;;;5066202;28;20076;-75
2022/08/17 02:45:54;;;;;;;1999.90;999.90;;;16.80;99.90;;;;;;5046480;28;20041;-75
2022/08/17 02:48:20;;;;;;;1999.90;999.90;;;16.70;99.90;;;;;;5052874;28;20174;-75
2022/08/17 02:50:46;;;;;;;1999.90;999.90;;;16.70;99.90;;;;;;5056380;28;20043;-75
2022/08/17 02:53:12;;;;;;;1999.90;999.90;;;16.70;99.90;;;;;;5052320;28;20124;-75
2022/08/17 02:55:40;;;;;;;1999.90;999.90;;;16.70;99.90;;;;;;5052969;28;20044;-75
2022/08/17 02:58:06;;;;;;;1999.90;999.90;;;16.80;99.90;;;;;;5056710;28;20049;-75
2022/08/17 03:00:36;;;;;;;1999.90;999.90;;;16.80;99.90;;;;;;5052015;28;20083;-75
2022/08/17 03:03:04;;;;;;;1999.90;999.90;;;16.90;99.90;;;;;;5052254;28;20098;-76
2022/08/17 03:05:33;;;;;;;1999.90;999.90;;;16.90;99.90;;;;;;5036550;28;20047;-76
2022/08/17 03:07:59;;;;;;;1999.90;999.90;;;17.00;99.90;;;;;;5055948;28;20044;-75
2022/08/17 03:10:25;;;;;;;1999.90;999.90;;;17.10;99.90;;;;;;5042987;28;20036;-75
2022/08/17 03:12:52;;;;;;;1999.90;999.90;;;17.10;99.90;;;;;;5036718;28;20042;-76
2022/08/17 03:15:20;;;;;;;1999.90;999.90;;;17.20;99.90;;;;;;5053919;28;20174;-76
2022/08/17 03:17:45;;;;;;;1999.90;999.90;;;17.40;99.90;;;;;;5037745;28;20190;-76
2022/08/17 03:20:12;;;;;;;1999.90;999.90;;;17.40;99.90;;;;;;5043304;28;20468;-76
2022/08/17 03:22:41;;;;;;;1999.90;999.90;;;17.50;99.90;;;;;;5056292;28;20115;-76
2022/08/17 03:25:09;;;;;;;1999.90;999.90;;;17.60;99.90;;;;;;5055756;28;20045;-76
2022/08/17 03:27:36;;;;;;;1999.90;999.90;;;17.60;99.90;;;;;;5066657;28;20076;-76
2022/08/17 03:30:04;;;;;;;1999.90;999.90;;;17.70;99.90;;;;;;5056166;28;20051;-76
2022/08/17 03:32:40;;;;;;;1999.90;999.90;;;17.70;99.90;;;;;;5070167;28;20056;-76
2022/08/17 03:35:06;;;;;;;1999.90;999.90;;;17.70;99.90;;;;;;5038031;28;20043;-77
2022/08/17 03:37:31;;;;;;;1999.90;999.90;;;17.70;99.90;;;;;;5056986;28;20483;-76
2022/08/17 03:39:57;;;;;;;1999.90;999.90;;;17.80;99.90;;;;;;5051401;28;20063;-76
2022/08/17 03:42:25;;;;;;;1999.90;999.90;;;17.80;99.90;;;;;;5056415;28;20549;-76
2022/08/17 03:44:53;;;;;;;1999.90;999.90;;;17.80;99.90;;;;;;5045153;28;20105;-76
2022/08/17 03:58:26;;;;;;;1999.90;999.90;;;17.90;99.90;;;;;;5054316;28;20053;-76
2022/08/17 04:00:53;;;;;;;1999.90;999.90;;;18.00;99.90;;;;;;5060127;28;20532;-76
2022/08/17 04:03:19;;;;;;;1999.90;999.90;;;18.00;99.90;;;;;;5057880;28;20048;-75
2022/08/17 04:05:44;;;;;;;1999.90;999.90;;;18.00;99.90;;;;;;5040678;28;20048;-76
2022/08/17 04:08:10;;;;;;;1999.90;999.90;;;18.00;99.90;;;;;;5041450;28;20039;-76
2022/08/17 04:10:36;;;;;;;1999.90;999.90;;;18.00;99.90;;;;;;5052966;28;20047;-76
2022/08/17 04:13:03;;;;;;;1999.90;999.90;;;18.00;99.90;;;;;;5047288;28;20040;-76
2022/08/17 04:15:29;;;;;;;1999.90;999.90;;;18.10;99.90;;;;;;5039401;28;20505;-76
2022/08/17 04:17:55;;;;;;;1999.90;999.90;;;18.00;99.90;;;;;;5056276;28;20497;-76
2022/08/17 04:20:23;;;;;;;1999.90;999.90;;;18.10;99.90;;;;;;5045303;28;20120;-76
2022/08/17 04:22:59;;;;;;;1999.90;999.90;;;18.10;99.90;;;;;;5056552;28;20048;-76
2022/08/17 04:25:26;;;;;;;1999.90;999.90;;;18.10;99.90;;;;;;5055365;28;20928;-76
2022/08/17 04:27:52;;;;;;;1999.90;999.90;;;18.10;99.90;;;;;;5052603;28;20128;-76
2022/08/17 04:30:18;;;;;;;1999.90;999.90;;;18.20;99.90;;;;;;5048465;28;20068;-76
2022/08/17 04:32:58;;;;;;;1999.90;999.90;;;18.20;99.90;;;;;;5033834;28;20061;-76
2022/08/17 04:35:27;;;;;;;1999.90;999.90;;;18.20;99.90;;;;;;5061568;28;20040;-76
2022/08/17 04:37:53;;;;;;;1999.90;999.90;;;18.20;99.90;;;;;;5040447;28;20051;-76
2022/08/17 04:43:07;;;;;;;1999.90;999.90;;;18.20;99.90;;;;;;5049837;28;20483;-76
2022/08/17 04:45:37;;;;;;;1999.90;999.90;;;18.20;99.90;;;;;;5040790;28;20048;-76
2022/08/17 04:48:03;;;;;;;1999.90;999.90;;;18.30;99.90;;;;;;5042963;28;20044;-76
2022/08/17 04:50:28;;;;;;;1999.90;999.90;;;18.30;99.90;;;;;;5057080;28;20032;-76
2022/08/17 04:52:54;;;;;;;1999.90;999.90;;;18.30;99.90;;;;;;5041201;28;20119;-76
2022/08/17 04:55:20;;;;;;;1999.90;999.90;;;18.20;99.90;;;;;;5051508;28;20049;-76
2022/08/17 04:57:46;;;;;;;1999.90;999.90;;;18.20;99.90;;;;;;5076116;28;20078;-77
2022/08/17 05:00:12;;;;;;;1999.90;999.90;;;18.20;99.90;;;;;;5048351;28;20037;-77
2022/08/17 05:02:48;;;;;;;1999.90;999.90;;;18.10;99.90;;;;;;5078617;28;20450;-76
2022/08/17 05:05:29;;;;;;;1999.90;999.90;;;18.10;99.90;;;;;;5056158;28;20041;-76
2022/08/17 05:07:57;;;;;;;1999.90;999.90;;;18.10;99.90;;;;;;5065651;28;20037;-76
2022/08/17 05:10:25;;;;;;;1999.90;999.90;;;18.10;99.90;;;;;;5051447;28;20044;-77
2022/08/17 05:13:04;;;;;;;1999.90;999.90;;;18.10;99.90;;;;;;5041029;28;20397;-77
2022/08/17 05:15:31;;;;;;;1999.90;999.90;;;18.00;99.90;;;;;;5056840;28;20123;-76
2022/08/17 05:17:57;;;;;;;1999.90;999.90;;;18.00;99.90;;;;;;5061221;28;20630;-76
2022/08/17 05:20:23;;;;;;;1999.90;999.90;;;18.00;99.90;;;;;;5055626;28;20077;-76
2022/08/17 05:22:51;;;;;;;1999.90;999.90;;;18.00;99.90;;;;;;5045589;28;20066;-77
2022/08/17 05:25:30;;;;;;;1999.90;999.90;;;18.00;99.90;;;;;;5059726;28;20374;-76
2022/08/17 05:27:56;;;;;;;1999.90;999.90;;;18.00;99.90;;;;;;5045176;28;20607;-76
2022/08/17 05:30:23;;;;;;;1999.90;999.90;;;18.00;99.90;;;;;;5060600;28;20040;-76
2022/08/17 05:33:10;;;;;;;1999.90;999.90;;;18.00;99.90;;;;;;5060847;28;20082;-77
2022/08/17 05:35:41;;;;;;;1999.90;999.90;;;18.10;99.90;;;;;;5043739;28;20173;-77
2022/08/17 05:38:07;;;;;;;1999.90;999.90;;;18.10;99.90;;;;;;5061626;28;20045;-76
2022/08/17 05:40:35;;;;;;;1999.90;999.90;;;18.00;99.90;;;;;;5050797;28;20093;-77
2022/08/17 05:43:09;;;;;;;1999.90;999.90;;;18.00;99.90;;;;;;5046252;28;20439;-76
2022/08/17 05:45:38;;;;;;;1999.90;999.90;;;18.00;99.90;;;;;;5054042;28;20044;-76
2022/08/17 05:48:06;;;;;;;1999.90;999.90;;;18.00;99.90;;;;;;5091024;28;20032;-77
2022/08/17 05:50:58;;;;;;;1999.90;999.90;;;18.10;99.90;;;;;;5058608;28;20517;-76
2022/08/17 05:53:36;;;;;;;1999.90;999.90;;;18.10;99.90;;;;;;5061242;28;20103;-77
2022/08/17 05:56:10;;;;;;;1999.90;999.90;;;18.10;99.90;;;;;;5051653;28;20537;-76
2022/08/17 05:59:12;;;;;;;1999.90;999.90;;;18.10;99.90;;;;;;5066981;28;20462;-77
2022/08/17 06:02:15;;;;;;;1999.90;999.90;;;18.10;99.90;;;;;;5034150;28;20040;-77
2022/08/17 06:05:00;;;;;;;;;;;18.10;99.90;;;;;;5059363;28;20401;-76
2022/08/17 06:07:25;;;;;;;1999.90;999.90;;;18.10;99.90;;;;;;5060696;28;19963;-76
2022/08/17 06:10:15;;;;;;;1999.90;999.90;;;18.10;99.90;;;;;;5050123;28;20079;-76
2022/08/17 06:12:59;;;;;;;1999.90;999.90;;;18.10;99.90;;;;;;5057680;28;20490;-76
2022/08/17 06:16:00;;;;;;;1999.90;999.90;;;18.10;99.90;;;;;;5060959;28;20044;-76
2022/08/17 06:18:32;;;;;;;1999.90;999.90;;;18.10;99.90;;;;;;5053572;28;20438;-76
2022/08/17 06:21:03;;;;;;;1999.90;999.90;;;18.20;99.90;;;;;;5058204;28;20497;-76
2022/08/17 06:23:37;;;;;;;1999.90;999.90;;;18.20;99.90;;;;;;5054557;28;20086;-76
2022/08/17 06:26:11;;;;;;;1999.90;999.90;;;18.30;99.90;;;;;;5064514;28;20051;-76
2022/08/17 06:28:46;;;;;;;1999.90;999.90;;;18.30;99.90;;;;;;5067114;28;20392;-76
2022/08/17 06:31:27;;;;;;;1999.90;999.90;;;18.30;99.90;;;;;;5051493;28;20048;-76
2022/08/17 06:33:58;;;;;;;1999.90;999.90;;;18.40;99.90;;;;;;5059329;28;20278;-76
2022/08/17 06:37:01;;;;;;;1999.90;999.90;;;18.50;99.90;;;;;;5052351;28;20087;-76
2022/08/17 06:39:48;;;;;;;1999.90;999.90;;;18.60;99.90;;;;;;5066382;28;20061;-76
2022/08/17 06:42:24;;;;;;;1999.90;999.90;;;18.60;99.90;;;;;;5037579;28;20128;-76
2022/08/17 06:44:52;;;;;;;1999.90;999.90;;;18.60;99.90;;;;;;5037844;28;20151;-76
2022/08/17 06:47:30;;;;;;;1999.90;999.90;;;18.70;99.90;;;;;;5051364;28;20040;-76
2022/08/17 06:50:19;;;;;;;1999.90;999.90;;;18.80;99.90;;;;;;5084643;28;20040;-76
2022/08/17 06:53:24;;;;;;;1999.90;999.90;;;18.80;99.90;;;;;;5054280;28;20119;-76
2022/08/17 06:56:12;;;;;;;1999.90;999.90;;;18.90;99.90;;;;;;5083023;28;20052;-76
2022/08/17 06:58:40;;;;;;;1999.90;999.90;;;19.00;99.90;;;;;;5045553;28;20397;-76
2022/08/17 07:01:13;;;;;;;1999.90;999.90;;;19.00;99.90;;;;;;5067694;28;20044;-76
2022/08/17 07:03:56;;;;;;;1999.90;999.90;;;19.10;99.90;;;;;;5061567;28;20091;-76
2022/08/17 07:06:28;;;;;;;1999.90;999.90;;;19.10;99.90;;;;;;5060983;28;20136;-75
2022/08/17 07:09:01;;;;;;;1999.90;999.90;;;19.20;99.90;;;;;;5049356;28;20036;-75
2022/08/17 07:11:30;;;;;;;1999.90;999.90;;;19.20;99.90;;;;;;5045319;28;20428;-76
2022/08/17 07:14:24;;;;;;;1999.90;999.90;;;19.20;99.90;;;;;;5059326;28;20044;-76
2022/08/17 07:16:53;;;;;;;1999.90;999.90;;;19.30;99.90;;;;;;5049833;28;20078;-76
2022/08/17 07:19:22;;;;;;;1999.90;999.90;;;19.20;99.90;;;;;;5040185;28;20048;-76
2022/08/17 07:22:21;;;;;;;1999.90;999.90;;;19.20;99.90;;;;;;5064414;28;20055;-76
2022/08/17 07:24:49;;;;;;;1999.90;999.90;;;19.30;99.90;;;;;;5057325;28;20044;-76
2022/08/17 07:27:26;;;;;;;1999.90;999.90;;;19.30;99.90;;;;;;5063322;28;20404;-76
2022/08/17 07:29:55;;;;;;;1999.90;999.90;;;19.50;99.90;;;;;;5052267;28;20048;-76
2022/08/17 07:32:34;;;;;;;1999.90;999.90;;;19.70;99.90;;;;;;5054752;28;20400;-76
2022/08/17 07:35:10;;;;;;;1999.90;999.90;;;19.90;99.90;;;;;;5071927;28;20079;-76
2022/08/17 07:38:11;;;;;;;1999.90;999.90;;;20.10;99.90;;;;;;5053127;28;20051;-76
2022/08/17 07:40:44;;;;;;;1999.90;999.90;;;20.20;99.90;;;;;;5059660;28;20107;-77
2022/08/17 07:43:16;;;;;;;1999.90;999.90;;;20.20;99.90;;;;;;5068900;28;20066;-76
2022/08/17 07:48:57;;;;;;;1999.90;999.90;;;20.30;99.90;;;;;;5067880;28;20043;-76
2022/08/17 07:51:51;;;;;;;1999.90;999.90;;;20.30;99.90;;;;;;5053263;28;20045;-76
2022/08/17 07:54:21;;;;;;;1999.90;999.90;;;20.50;99.90;;;;;;5064260;28;20490;-77
2022/08/17 07:56:49;;;;;;;1999.90;999.90;;;20.60;99.90;;;;;;5058409;28;20106;-76
2022/08/17 07:59:18;;;;;;;1999.90;999.90;;;20.80;99.90;;;;;;5056815;28;20150;-77
2022/08/17 08:01:47;;;;;;;1999.90;999.90;;;20.90;99.90;;;;;;5067381;28;20127;-77
2022/08/17 08:04:35;;;;;;;1999.90;999.90;;;20.90;99.90;;;;;;5046947;28;20565;-76
2022/08/17 08:07:06;;;;;;;1999.90;999.90;;;20.80;99.90;;;;;;5043120;28;20028;-77
2022/08/17 08:09:43;;;;;;;1999.90;999.90;;;20.80;99.90;;;;;;5052508;28;20098;-76
2022/08/17 08:12:32;;;;;;;1999.90;999.90;;;20.80;99.90;;;;;;5045779;28;20094;-77
2022/08/17 08:15:03;;;;;;;1999.90;999.90;;;20.70;99.90;;;;;;5066970;28;20041;-77
2022/08/17 08:17:36;;;;;;;1999.90;999.90;;;20.70;99.90;;;;;;5093000;28;20510;-77
2022/08/17 08:20:07;;;;;;;1999.90;999.90;;;20.70;99.90;;;;;;5041434;28;20036;-76
2022/08/17 08:23:10;;;;;;;1999.90;999.90;;;20.60;99.90;;;;;;5059041;28;20068;-77
2022/08/17 08:25:35;;;;;;;1999.90;999.90;;;20.60;99.90;;;;;;5014283;28;20741;-77
2022/08/17 08:28:20;;;;;;;1999.90;999.90;;;20.60;99.90;;;;;;5045976;28;20032;-77
2022/08/17 08:30:51;;;;;;;1999.90;999.90;;;20.70;99.90;;;;;;5097188;28;20435;-77
2022/08/17 08:33:35;;;;;;;1999.90;999.90;;;20.70;99.90;;;;;;5068333;28;20135;-77
2022/08/17 08:36:37;;;;;;;1999.90;999.90;;;20.70;99.90;;;;;;5093060;28;20127;-77
2022/08/17 08:39:20;;;;;;;1999.90;999.90;;;20.80;99.90;;;;;;5063142;28;20071;-77
2022/08/17 08:42:14;;;;;;;1999.90;999.90;;;20.80;99.90;;;;;;5089124;28;20041;-77
2022/08/17 08:44:49;;;;;;;1999.90;999.90;;;20.80;99.90;;;;;;5048738;28;20113;-77
2022/08/17 08:47:29;;;;;;;1999.90;999.90;;;20.80;99.90;;;;;;5043080;28;20045;-76
2022/08/17 08:50:08;;;;;;;1999.90;999.90;;;20.80;99.90;;;;;;5078705;28;20072;-76
2022/08/17 08:53:14;;;;;;;1999.90;999.90;;;20.70;99.90;;;;;;5050784;28;20052;-76
2022/08/17 08:56:03;;;;;;;1999.90;999.90;;;20.70;99.90;;;;;;5055072;28;20041;-76
2022/08/17 08:58:46;;;;;;;1999.90;999.90;;;20.70;99.90;;;;;;5073957;28;20040;-76
2022/08/17 09:01:33;;;;;;;1999.90;999.90;;;20.70;99.90;;;;;;5066878;28;20496;-75
2022/08/17 09:04:20;;;;;;;1999.90;999.90;;;20.80;99.90;;;;;;5085344;28;20037;-76
2022/08/17 09:07:16;;;;;;;1999.90;999.90;;;20.80;99.90;;;;;;5069834;28;20043;-75
2022/08/17 09:09:54;;;;;;;1999.90;999.90;;;20.90;99.90;;;;;;5066255;28;20040;-76
2022/08/17 09:12:53;;;;;;;1999.90;999.90;;;21.00;99.90;;;;;;5068830;28;20055;-77
2022/08/17 09:15:33;;;;;;;1999.90;999.90;;;21.20;99.90;;;;;;5056827;28;20056;-77
2022/08/17 09:18:25;;;;;;;1999.90;999.90;;;21.50;99.90;;;;;;5054022;28;20056;-77
2022/08/17 09:20:57;;;;;;;1999.90;999.90;;;22.10;99.90;;;;;;5066390;28;20149;-77
2022/08/17 09:23:43;;;;;;;1999.90;999.90;;;22.60;99.90;;;;;;5067247;28;20132;-77
2022/08/17 09:26:40;;;;;;;1999.90;999.90;;;22.80;99.90;;;;;;5046547;28;20037;-77
2022/08/17 09:29:14;;;;;;;1999.90;999.90;;;23.10;99.90;;;;;;5034547;28;20087;-77
2022/08/17 09:31:54;;;;;;;1999.90;999.90;;;23.30;99.90;;;;;;5062494;28;20162;-77
2022/08/17 09:34:38;;;;;;;1999.90;999.90;;;23.80;99.90;;;;;;5061012;28;20045;-77
2022/08/17 09:37:14;;;;;;;1999.90;999.90;;;24.20;99.90;;;;;;5070671;28;20408;-78
2022/08/17 09:39:44;;;;;;;1999.90;999.90;;;24.20;99.90;;;;;;5054798;28;20061;-77
2022/08/17 09:42:21;;;;;;;1999.90;999.90;;;23.90;99.90;;;;;;5067047;28;20040;-77
2022/08/17 09:45:09;;;;;;;1999.90;999.90;;;23.50;99.90;;;;;;5094078;28;20040;-77
2022/08/17 09:48:13;;;;;;;1999.90;999.90;;;23.30;99.90;;;;;;5045948;28;20462;-77
2022/08/17 09:51:07;;;;;;;1999.90;999.90;;;23.10;99.90;;;;;;5049189;28;20445;-77
2022/08/17 09:53:38;;;;;;;1999.90;999.90;;;23.00;99.90;;;;;;5067910;28;20127;-77
2022/08/17 09:56:09;;;;;;;1999.90;999.90;;;23.00;99.90;;;;;;5063545;28;20039;-77
2022/08/17 09:58:49;;;;;;;1999.90;999.90;;;22.90;99.90;;;;;;5060103;28;20131;-77
2022/08/17 10:01:35;;;;;;;1999.90;999.90;;;22.90;99.90;;;;;;5062604;28;20503;-77
2022/08/17 10:04:19;;;;;;;1999.90;999.90;;;22.80;99.90;;;;;;5040517;28;20044;-77
2022/08/17 10:06:52;;;;;;;1999.90;999.90;;;22.80;99.90;;;;;;5040022;28;20446;-77
2022/08/17 10:09:37;;;;;;;1999.90;999.90;;;22.80;99.90;;;;;;5045539;28;20130;-77
2022/08/17 10:12:15;;;;;;;1999.90;999.90;;;22.80;99.90;;;;;;5066924;28;20507;-77
2022/08/17 10:15:03;;;;;;;1999.90;999.90;;;22.80;99.90;;;;;;5065205;28;20048;-77
2022/08/17 10:17:49;;;;;;;1999.90;999.90;;;22.80;99.90;;;;;;5096469;28;20087;-77
2022/08/17 10:26:11;;;;;;;1999.90;999.90;;;22.80;99.90;;;;;;5098789;28;20504;-77
2022/08/17 10:26:34;;;;;;;1999.90;999.90;;;22.90;99.90;;;;;;5064038;28;20041;-77
2022/08/17 10:29:16;;;;;;;1999.90;999.90;;;22.80;99.90;;;;;;5072976;28;20095;-77
2022/08/17 10:31:44;;;;;;;1999.90;999.90;;;22.80;99.90;;;;;;5050279;28;20036;-77
2022/08/17 10:34:31;;;;;;;1999.90;999.90;;;22.80;99.90;;;;;;5040625;28;20133;-77
2022/08/17 10:37:18;;;;;;;1999.90;999.90;;;22.80;99.90;;;;;;5066712;28;20048;-76
2022/08/17 10:40:09;;;;;;;1999.90;999.90;;;22.80;99.90;;;;;;5064352;28;20110;-77
2022/08/17 10:42:56;;;;;;;1999.90;999.90;;;22.80;99.90;;;;;;5076921;28;20397;-77
2022/08/17 10:45:46;;;;;;;1999.90;999.90;;;22.90;99.90;;;;;;5054246;28;20123;-77
2022/08/17 10:48:33;;;;;;;1999.90;999.90;;;22.80;99.90;;;;;;5022145;28;20408;-77
2022/08/17 10:51:06;;;;;;;1999.90;999.90;;;22.90;99.90;;;;;;5075874;28;20037;-77
2022/08/17 10:53:31;;;;;;;1999.90;999.90;;;23.00;99.90;;;;;;5053983;28;20052;-77
2022/08/17 10:56:12;;;;;;;1999.90;999.90;;;23.10;99.90;;;;;;5067857;28;20041;-77
2022/08/17 10:58:44;;;;;;;1999.90;999.90;;;23.30;99.90;;;;;;5057615;28;20076;-77
2022/08/17 11:01:11;;;;;;;1999.90;999.90;;;23.30;99.90;;;;;;5061601;28;20052;-77
2022/08/17 11:03:52;;;;;;;1999.90;999.90;;;23.60;99.90;;;;;;5062345;28;20049;-77
2022/08/17 11:06:28;;;;;;;1999.90;999.90;;;23.60;99.90;;;;;;5066665;28;20472;-76
2022/08/17 11:09:05;;;;;;;1999.90;999.90;;;23.60;99.90;;;;;;5059241;28;20044;-77
2022/08/17 11:11:57;;;;;;;1999.90;999.90;;;23.70;99.90;;;;;;5067033;28;20044;-77
2022/08/17 11:14:49;;;;;;;1999.90;999.90;;;23.80;99.90;;;;;;5065346;28;20416;-77
2022/08/17 11:17:54;;;;;;;1999.90;999.90;;;23.90;99.90;;;;;;5092507;28;20051;-77
2022/08/17 11:20:28;;;;;;;1999.90;999.90;;;24.00;99.90;;;;;;5092338;28;20052;-77
2022/08/17 11:22:57;;;;;;;1999.90;999.90;;;23.90;99.90;;;;;;5068355;28;20044;-77
2022/08/17 11:25:45;;;;;;;1999.90;999.90;;;23.80;99.90;;;;;;5070396;28;20045;-77
2022/08/17 11:28:18;;;;;;;1999.90;999.90;;;23.80;99.90;;;;;;5100559;28;20118;-77
2022/08/17 11:31:12;;;;;;;1999.90;999.90;;;23.70;99.90;;;;;;5069978;28;20044;-77
2022/08/17 11:33:51;;;;;;;1999.90;999.90;;;23.70;99.90;;;;;;5047092;28;20098;-77
2022/08/17 11:36:46;;;;;;;1999.90;999.90;;;23.70;99.90;;;;;;5051951;28;20044;-77
2022/08/17 11:39:49;;;;;;;1999.90;999.90;;;23.80;99.90;;;;;;5049150;28;20098;-78
2022/08/17 11:42:50;;;;;;;1999.90;999.90;;;23.80;99.90;;;;;;5099647;28;20044;-77
2022/08/17 11:45:28;;;;;;;1999.90;999.90;;;23.80;99.90;;;;;;5029813;28;20109;-77
2022/08/17 11:51:34;;;;;;;1999.90;999.90;;;24.00;99.90;;;;;;5055587;28;20489;-77
2022/08/17 11:54:04;;;;;;;1999.90;999.90;;;23.90;99.90;;;;;;5067088;28;20492;-77
2022/08/17 11:56:33;;;;;;;1999.90;999.90;;;23.80;99.90;;;;;;5062270;28;20416;-77
2022/08/17 11:58:59;;;;;;;1999.90;999.90;;;23.80;99.90;;;;;;5063358;28;20493;-77
2022/08/17 12:01:28;;;;;;;1999.90;999.90;;;23.60;99.90;;;;;;5069881;28;20044;-77
2022/08/17 12:04:26;;;;;;;1999.90;999.90;;;23.60;99.90;;;;;;5067271;28;20130;-77
2022/08/17 12:07:09;;;;;;;1999.90;999.90;;;23.60;99.90;;;;;;5053754;28;20067;-77
2022/08/17 12:09:42;;;;;;;1999.90;999.90;;;23.60;99.90;;;;;;5051684;28;20127;-77
2022/08/17 12:12:12;;;;;;;1999.90;999.90;;;23.70;99.90;;;;;;5069305;28;20047;-77
2022/08/17 12:14:44;;;;;;;1999.90;999.90;;;23.80;99.90;;;;;;5052791;28;20553;-77
2022/08/17 12:17:14;;;;;;;1999.90;999.90;;;24.00;99.90;;;;;;5064305;28;20048;-77
2022/08/17 12:19:42;;;;;;;1999.90;999.90;;;24.10;99.90;;;;;;5051651;28;20040;-77
2022/08/17 12:22:42;;;;;;;1999.90;999.90;;;24.10;99.90;;;;;;5068961;28;20056;-77
2022/08/17 12:25:19;;;;;;;1999.90;999.90;;;24.10;99.90;;;;;;5038433;28;20060;-77
2022/08/17 12:27:50;;;;;;;1999.90;999.90;;;24.00;99.90;;;;;;5045389;28;20032;-77
2022/08/17 12:30:19;;;;;;;1999.90;999.90;;;24.00;99.90;;;;;;5049802;28;20037;-77
2022/08/17 12:32:47;;;;;;;1999.90;999.90;;;24.00;99.90;;;;;;5044161;28;20041;-77
2022/08/17 12:35:28;;;;;;;1999.90;999.90;;;24.00;99.90;;;;;;5068035;28;20080;-77
2022/08/17 12:37:58;;;;;;;1999.90;999.90;;;24.10;99.90;;;;;;5048955;28;20043;-77
2022/08/17 12:40:28;;;;;;;1999.90;999.90;;;24.10;99.90;;;;;;5067871;28;20048;-77
2022/08/17 12:42:57;;;;;;;1999.90;999.90;;;24.10;99.90;;;;;;5041315;28;20068;-77
2022/08/17 12:45:29;;;;;;;1999.90;999.90;;;24.00;99.90;;;;;;5066658;28;20488;-77
2022/08/17 12:48:08;;;;;;;1999.90;999.90;;;24.00;99.90;;;;;;5051914;28;20526;-77
2022/08/17 12:50:35;;;;;;;1999.90;999.90;;;24.00;99.90;;;;;;5055372;28;20127;-78
2022/08/17 12:53:01;;;;;;;1999.90;999.90;;;23.90;99.90;;;;;;5066715;28;20079;-77
2022/08/17 12:55:28;;;;;;;1999.90;999.90;;;23.80;99.90;;;;;;5052346;28;20538;-77
2022/08/17 12:57:58;;;;;;;1999.90;999.90;;;23.70;99.90;;;;;;5050612;28;20087;-77